createdAt,value
2022-10-23T00:01:45.822Z,15.45
2022-10-23T00:03:56.171Z,14.45
2022-10-23T00:06:03.250Z,13.88
2022-10-23T00:08:10.186Z,13.80
2022-10-23T00:10:17.102Z,14.05
2022-10-23T00:12:24.025Z,14.15
2022-10-23T00:14:30.850Z,15.70
2022-10-23T00:16:38.543Z,13.70
2022-10-23T00:18:47.310Z,16.77
2022-10-23T00:20:54.443Z,12.77
2022-10-23T00:23:01.271Z,13.35
2022-10-23T00:25:09.217Z,16.50
2022-10-23T00:27:15.987Z,15.93
2022-10-23T00:29:23.988Z,13.13
2022-10-23T00:31:31.321Z,12.98
2022-10-23T00:33:40.347Z,28.60
2022-10-23T00:35:48.875Z,27.67
2022-10-23T00:37:56.194Z,34.03
2022-10-23T00:40:03.119Z,19.38
2022-10-23T00:42:10.404Z,23.33
2022-10-23T00:44:49.535Z,27.85
2022-10-23T00:46:56.816Z,26.92
2022-10-23T00:49:04.051Z,28.50
2022-10-23T00:51:12.977Z,39.97
2022-10-23T00:53:22.103Z,48.30
2022-10-23T00:55:30.000Z,22.90
2022-10-23T00:57:36.925Z,32.92
2022-10-23T00:59:46.003Z,24.08
2022-10-23T01:01:53.393Z,19.23
2022-10-23T01:04:00.676Z,22.05
2022-10-23T01:06:16.661Z,26.58
2022-10-23T01:08:32.138Z,34.08
2022-10-23T01:10:46.546Z,28.13
2022-10-23T01:12:58.819Z,23.05
2022-10-23T01:15:15.850Z,22.85
2022-10-23T01:17:32.419Z,18.40
2022-10-23T01:19:53.512Z,15.10
2022-10-23T01:22:15.691Z,15.30
2022-10-23T01:24:34.138Z,16.60
2022-10-23T01:27:00.469Z,29.83
2022-10-23T01:29:17.789Z,24.38
2022-10-23T01:31:33.944Z,18.67
2022-10-23T01:33:44.747Z,25.33
2022-10-23T01:35:55.464Z,15.05
2022-10-23T01:38:08.938Z,18.63
2022-10-23T01:40:21.295Z,21.65
2022-10-23T01:42:32.316Z,19.38
2022-10-23T01:44:45.195Z,15.73
2022-10-23T01:46:53.333Z,17.52
2022-10-23T01:49:02.105Z,15.82
2022-10-23T01:51:12.101Z,16.60
2022-10-23T01:53:19.492Z,17.58
2022-10-23T01:55:27.926Z,18.25
2022-10-23T01:57:40.920Z,21.05
2022-10-23T01:59:53.781Z,20.55
2022-10-23T02:02:02.295Z,17.13
2022-10-23T02:04:13.676Z,20.67
2022-10-23T02:06:21.065Z,21.13
2022-10-23T02:08:28.202Z,15.63
2022-10-23T02:10:41.979Z,16.00
2022-10-23T02:13:01.142Z,19.05
2022-10-23T02:15:16.370Z,16.05
2022-10-23T02:17:29.787Z,14.93
2022-10-23T02:19:46.092Z,14.05
2022-10-23T02:21:56.918Z,15.43
2022-10-23T02:26:28.435Z,14.52
2022-10-23T02:28:41.342Z,13.00
2022-10-23T02:30:53.255Z,16.40
2022-10-23T02:33:01.547Z,15.27
2022-10-23T02:35:09.257Z,13.77
2022-10-23T02:37:16.700Z,16.42
2022-10-23T02:39:25.591Z,12.98
2022-10-23T02:41:47.935Z,14.02
2022-10-23T02:44:06.691Z,15.27
2022-10-23T02:46:24.216Z,18.00
2022-10-23T02:48:37.642Z,16.17
2022-10-23T02:50:55.719Z,16.23
2022-10-23T02:53:09.915Z,15.13
2022-10-23T02:55:26.775Z,14.35
2022-10-23T02:57:35.938Z,16.08
2022-10-23T02:59:48.193Z,14.48
2022-10-23T03:02:05.335Z,15.18
2022-10-23T03:04:17.735Z,20.17
2022-10-23T03:06:25.937Z,13.70
2022-10-23T03:08:32.557Z,14.75
2022-10-23T03:10:39.543Z,16.90
2022-10-23T03:12:48.120Z,14.50
2022-10-23T03:14:55.071Z,13.50
2022-10-23T03:17:03.305Z,13.63
2022-10-23T03:21:18.525Z,13.60
2022-10-23T03:23:30.046Z,13.63
2022-10-23T03:25:36.625Z,14.73
2022-10-23T03:27:43.820Z,17.42
2022-10-23T03:29:54.558Z,13.98
2022-10-23T03:32:03.087Z,14.43
2022-10-23T03:34:12.170Z,14.32
2022-10-23T03:36:20.206Z,17.45
2022-10-23T03:38:26.983Z,17.00
2022-10-23T03:40:33.544Z,16.27
2022-10-23T03:42:40.066Z,14.48
2022-10-23T03:44:47.967Z,16.27
2022-10-23T03:46:54.595Z,17.48
2022-10-23T03:49:02.847Z,16.10
2022-10-23T03:51:10.149Z,16.63
2022-10-23T03:53:19.932Z,14.45
2022-10-23T03:55:28.153Z,18.02
2022-10-23T03:57:35.224Z,15.43
2022-10-23T03:59:41.765Z,17.13
2022-10-23T04:01:48.528Z,16.70
2022-10-23T04:03:55.216Z,15.35
2022-10-23T04:06:05.517Z,14.25
2022-10-23T04:08:14.185Z,17.23
2022-10-23T04:10:24.434Z,18.08
2022-10-23T04:12:31.010Z,15.60
2022-10-23T04:14:38.048Z,16.40
2022-10-23T04:16:44.713Z,13.63
2022-10-23T04:18:51.625Z,15.00
2022-10-23T04:20:58.305Z,14.00
2022-10-23T04:23:06.523Z,14.27
2022-10-23T04:25:14.018Z,15.65
2022-10-23T04:27:20.550Z,15.35
2022-10-23T04:29:27.909Z,15.40
2022-10-23T04:31:34.775Z,13.93
2022-10-23T04:33:41.799Z,13.27
2022-10-23T04:35:48.714Z,14.43
2022-10-23T04:37:55.965Z,15.60
2022-10-23T04:40:04.820Z,13.13
2022-10-23T04:42:14.686Z,12.63
2022-10-23T04:44:21.397Z,15.32
2022-10-23T04:46:28.461Z,15.70
2022-10-23T04:48:35.345Z,11.32
2022-10-23T04:51:09.862Z,11.60
2022-10-23T04:53:39.919Z,14.75
2022-10-23T04:56:01.780Z,12.88
2022-10-23T04:58:24.960Z,12.38
2022-10-23T05:00:32.072Z,14.60
2022-10-23T05:02:38.777Z,14.45
2022-10-23T05:04:48.023Z,14.38
2022-10-23T05:07:15.146Z,11.82
2022-10-23T05:09:38.079Z,11.70
2022-10-23T05:12:07.407Z,16.80
2022-10-23T05:14:16.326Z,15.00
2022-10-23T05:16:37.166Z,15.05
2022-10-23T05:18:48.545Z,17.70
2022-10-23T05:20:59.275Z,14.20
2022-10-23T05:23:09.710Z,13.55
2022-10-23T05:25:16.927Z,15.68
2022-10-23T05:27:31.044Z,14.13
2022-10-23T05:29:38.073Z,15.18
2022-10-23T05:31:44.670Z,13.15
2022-10-23T05:33:52.142Z,16.48
2022-10-23T05:36:01.582Z,19.35
2022-10-23T05:38:10.054Z,12.23
2022-10-23T05:40:17.624Z,13.98
2022-10-23T05:42:27.362Z,13.90
2022-10-23T05:44:38.134Z,13.18
2022-10-23T05:47:03.039Z,13.55
2022-10-23T05:49:35.409Z,15.63
2022-10-23T05:52:00.059Z,14.32
2022-10-23T05:54:15.522Z,12.70
2022-10-23T05:56:45.001Z,13.75
2022-10-23T05:59:23.036Z,12.98
2022-10-23T06:01:38.336Z,12.82
2022-10-23T06:03:46.644Z,14.32
2022-10-23T06:05:53.978Z,13.30
2022-10-23T06:08:03.141Z,13.77
2022-10-23T06:10:10.714Z,13.85
2022-10-23T06:12:23.023Z,12.73
2022-10-23T06:14:32.306Z,12.05
2022-10-23T06:16:41.026Z,12.85
2022-10-23T06:18:48.803Z,14.52
2022-10-23T06:20:57.528Z,14.00
2022-10-23T06:23:06.897Z,13.00
2022-10-23T06:25:33.369Z,13.32
2022-10-23T06:27:43.422Z,14.57
2022-10-23T06:29:51.035Z,14.10
2022-10-23T06:31:59.416Z,12.13
2022-10-23T06:34:07.078Z,12.95
2022-10-23T06:36:13.894Z,13.50
2022-10-23T06:38:22.333Z,12.65
2022-10-23T06:40:34.171Z,11.98
2022-10-23T06:42:44.614Z,12.80
2022-10-23T06:45:06.430Z,12.68
2022-10-23T06:47:29.702Z,11.80
2022-10-23T06:49:54.447Z,13.80
2022-10-23T06:52:01.854Z,13.80
2022-10-23T06:54:08.617Z,15.02
2022-10-23T06:56:36.110Z,13.73
2022-10-23T06:58:45.959Z,13.00
2022-10-23T07:00:55.074Z,12.98
2022-10-23T07:03:03.321Z,12.40
2022-10-23T07:05:13.533Z,12.90
2022-10-23T07:07:21.938Z,13.75
2022-10-23T07:09:29.166Z,13.50
2022-10-23T07:11:36.422Z,11.80
2022-10-23T07:13:45.466Z,14.13
2022-10-23T07:15:57.089Z,14.43
2022-10-23T07:18:07.322Z,13.80
2022-10-23T07:20:33.582Z,12.88
2022-10-23T07:22:40.872Z,11.57
2022-10-23T07:24:53.426Z,12.20
2022-10-23T07:27:11.380Z,14.15
2022-10-23T07:29:18.287Z,13.38
2022-10-23T07:31:28.291Z,13.90
2022-10-23T07:33:55.512Z,13.85
2022-10-23T07:36:03.060Z,12.65
2022-10-23T07:38:09.667Z,13.93
2022-10-23T07:42:30.375Z,13.60
2022-10-23T07:44:37.446Z,13.82
2022-10-23T07:46:44.059Z,13.18
2022-10-23T07:48:50.915Z,14.38
2022-10-23T07:51:04.029Z,11.77
2022-10-23T07:53:14.291Z,12.43
2022-10-23T07:55:25.806Z,14.52
2022-10-23T07:57:41.726Z,14.02
2022-10-23T08:00:04.758Z,14.68
2022-10-23T08:02:21.717Z,13.70
2022-10-23T08:04:30.393Z,13.95
2022-10-23T08:06:57.236Z,11.82
2022-10-23T08:09:06.787Z,15.70
2022-10-23T08:11:18.271Z,12.68
2022-10-23T08:13:29.666Z,12.57
2022-10-23T08:17:57.553Z,13.43
2022-10-23T08:20:24.175Z,12.00
2022-10-23T08:22:32.509Z,15.30
2022-10-23T08:24:39.083Z,12.82
2022-10-23T08:26:45.793Z,10.68
2022-10-23T08:28:53.480Z,12.20
2022-10-23T08:31:02.116Z,12.93
2022-10-23T08:33:09.115Z,11.38
2022-10-23T08:35:15.750Z,12.20
2022-10-23T08:37:22.539Z,11.18
2022-10-23T08:39:30.841Z,13.55
2022-10-23T08:41:58.960Z,11.30
2022-10-23T08:44:12.696Z,12.20
2022-10-23T08:46:28.051Z,12.23
2022-10-23T08:49:02.993Z,12.07
2022-10-23T08:51:28.714Z,13.50
2022-10-23T08:53:41.117Z,11.30
2022-10-23T08:55:55.288Z,13.50
2022-10-23T08:58:06.551Z,13.15
2022-10-23T09:00:18.126Z,11.70
2022-10-23T09:02:29.251Z,12.52
2022-10-23T09:04:36.542Z,12.73
2022-10-23T09:06:48.984Z,11.85
2022-10-23T09:09:07.682Z,13.57
2022-10-23T09:11:24.141Z,13.57
2022-10-23T09:13:43.658Z,12.15
2022-10-23T09:15:55.647Z,14.60
2022-10-23T09:18:05.670Z,12.80
2022-10-23T09:20:20.898Z,16.30
2022-10-23T09:22:27.999Z,12.82
2022-10-23T09:24:37.422Z,11.85
2022-10-23T09:26:49.255Z,13.35
2022-10-23T09:31:11.118Z,11.85
2022-10-23T09:33:18.911Z,12.00
2022-10-23T09:35:27.349Z,10.73
2022-10-23T09:37:36.817Z,9.98
2022-10-23T09:39:43.384Z,13.73
2022-10-23T09:41:54.160Z,12.60
2022-10-23T09:44:20.312Z,12.43
2022-10-23T09:46:27.695Z,9.77
2022-10-23T09:48:34.638Z,10.25
2022-10-23T09:50:45.477Z,10.95
2022-10-23T09:53:01.592Z,10.17
2022-10-23T09:55:24.055Z,11.70
2022-10-23T09:57:34.854Z,12.68
2022-10-23T09:59:41.426Z,11.35
2022-10-23T10:01:51.929Z,11.88
2022-10-23T10:04:18.421Z,13.15
2022-10-23T10:06:30.681Z,16.33
2022-10-23T10:08:45.191Z,12.68
2022-10-23T10:10:55.211Z,13.82
2022-10-23T10:13:08.549Z,13.15
2022-10-23T10:15:25.796Z,12.38
2022-10-23T10:17:43.591Z,16.90
2022-10-23T10:20:07.176Z,13.45
2022-10-23T10:22:25.829Z,17.10
2022-10-23T10:24:39.632Z,18.77
2022-10-23T10:26:54.579Z,15.98
2022-10-23T10:29:15.692Z,17.05
2022-10-23T10:31:28.912Z,16.53
2022-10-23T10:33:43.829Z,13.70
2022-10-23T10:36:00.687Z,17.30
2022-10-23T10:38:27.202Z,17.27
2022-10-23T10:40:37.070Z,17.02
2022-10-23T10:43:12.005Z,15.70
2022-10-23T10:45:34.058Z,19.55
2022-10-23T10:47:48.438Z,16.70
2022-10-23T10:50:11.841Z,17.75
2022-10-23T10:52:32.893Z,17.73
2022-10-23T10:54:51.594Z,17.38
2022-10-23T10:57:01.209Z,17.00
2022-10-23T10:59:15.259Z,17.20
2022-10-23T11:01:28.036Z,19.23
2022-10-23T11:03:41.239Z,18.00
2022-10-23T11:05:49.907Z,18.80
2022-10-23T11:08:00.320Z,19.60
2022-10-23T11:10:17.637Z,18.90
2022-10-23T11:12:28.022Z,17.45
2022-10-23T11:14:36.743Z,22.77
2022-10-23T11:16:49.597Z,20.60
2022-10-23T11:19:11.353Z,19.75
2022-10-23T11:21:29.624Z,20.65
2022-10-23T11:24:16.948Z,21.52
2022-10-23T11:26:37.953Z,26.00
2022-10-23T11:29:01.793Z,24.10
2022-10-23T11:31:20.076Z,21.77
2022-10-23T11:33:58.096Z,22.48
2022-10-23T11:36:19.434Z,27.08
2022-10-23T11:38:30.941Z,25.33
2022-10-23T11:40:37.672Z,24.93
2022-10-23T11:42:51.763Z,23.52
2022-10-23T11:44:58.694Z,29.13
2022-10-23T11:47:07.150Z,29.25
2022-10-23T11:49:25.257Z,29.00
2022-10-23T11:51:34.440Z,35.30
2022-10-23T11:53:44.261Z,36.30
2022-10-23T11:56:09.138Z,33.00
2022-10-23T11:58:22.852Z,37.08
2022-10-23T12:00:34.092Z,36.75
2022-10-23T12:02:44.039Z,43.97
2022-10-23T12:04:55.342Z,39.30
2022-10-23T12:07:03.645Z,38.30
2022-10-23T12:09:25.767Z,39.33
2022-10-23T12:13:52.574Z,35.20
2022-10-23T12:16:00.953Z,40.13
2022-10-23T12:18:19.087Z,40.10
2022-10-23T12:20:41.088Z,44.55
2022-10-23T12:25:03.811Z,44.22
2022-10-23T12:27:23.284Z,44.75
2022-10-23T12:29:48.989Z,47.30
2022-10-23T12:32:04.307Z,45.47
2022-10-23T12:34:21.622Z,43.65
2022-10-23T12:36:54.168Z,45.67
2022-10-23T12:39:02.116Z,44.83
2022-10-23T12:41:16.010Z,44.92
2022-10-23T12:43:30.467Z,47.45
2022-10-23T12:45:44.381Z,47.25
2022-10-23T12:48:04.469Z,40.25
2022-10-23T12:50:21.448Z,42.17
2022-10-23T12:52:42.570Z,41.67
2022-10-23T12:57:26.279Z,54.50
2022-10-23T12:59:43.053Z,64.20
2022-10-23T13:01:52.777Z,61.28
2022-10-23T13:04:03.289Z,57.03
2022-10-23T13:06:16.204Z,51.83
2022-10-23T13:08:28.304Z,56.80
2022-10-23T13:11:03.860Z,54.17
2022-10-23T13:13:25.827Z,46.92
2022-10-23T13:15:42.050Z,48.25
2022-10-23T13:17:50.216Z,49.55
2022-10-23T13:19:56.693Z,47.83
2022-10-23T13:22:03.968Z,46.92
2022-10-23T13:24:23.661Z,46.42
2022-10-23T13:26:35.559Z,44.35
2022-10-23T13:28:46.341Z,46.05
2022-10-23T13:31:04.393Z,46.47
2022-10-23T13:33:19.022Z,48.83
2022-10-23T13:35:26.657Z,46.25
2022-10-23T13:37:34.699Z,52.33
2022-10-23T13:39:42.914Z,44.22
2022-10-23T13:41:50.168Z,39.17
2022-10-23T13:43:57.728Z,39.65
2022-10-23T13:46:04.867Z,38.10
2022-10-23T13:48:17.117Z,41.17
2022-10-23T13:50:24.086Z,40.75
2022-10-23T13:52:31.095Z,42.25
2022-10-23T13:54:37.668Z,38.33
2022-10-23T13:56:45.766Z,36.08
2022-10-23T13:58:52.631Z,35.10
2022-10-23T14:01:01.983Z,35.95
2022-10-23T14:03:08.703Z,36.92
2022-10-23T14:05:15.872Z,37.85
2022-10-23T14:07:23.585Z,36.58
2022-10-23T14:09:32.715Z,39.20
2022-10-23T14:11:39.259Z,38.35
2022-10-23T14:13:48.097Z,41.67
2022-10-23T14:15:57.333Z,37.13
2022-10-23T14:18:08.080Z,39.45
2022-10-23T14:20:17.387Z,39.78
2022-10-23T14:22:26.005Z,42.50
2022-10-23T14:24:32.462Z,45.55
2022-10-23T14:26:39.209Z,44.90
2022-10-23T14:28:47.384Z,47.15
2022-10-23T14:30:54.249Z,44.65
2022-10-23T14:33:01.010Z,44.15
2022-10-23T14:35:08.152Z,39.97
2022-10-23T14:37:15.263Z,40.80
2022-10-23T14:39:21.997Z,43.10
2022-10-23T14:41:30.564Z,44.22
2022-10-23T14:43:37.063Z,41.53
2022-10-23T14:45:45.226Z,40.13
2022-10-23T14:47:51.789Z,40.83
2022-10-23T14:49:59.177Z,38.50
2022-10-23T14:52:05.902Z,41.28
2022-10-23T14:54:12.440Z,37.53
2022-10-23T14:56:19.281Z,41.58
2022-10-23T14:58:25.843Z,37.85
2022-10-23T15:00:32.609Z,39.13
2022-10-23T15:02:41.131Z,36.97
2022-10-23T15:04:47.844Z,39.88
2022-10-23T15:06:54.783Z,42.55
2022-10-23T15:09:01.371Z,36.92
2022-10-23T15:11:12.540Z,41.85
2022-10-23T15:13:19.489Z,39.10
2022-10-23T15:15:26.170Z,39.83
2022-10-23T15:17:33.243Z,39.33
2022-10-23T15:19:41.574Z,41.13
2022-10-23T15:21:48.306Z,39.65
2022-10-23T15:23:57.031Z,38.97
2022-10-23T15:26:05.182Z,37.05
2022-10-23T15:28:11.733Z,44.58
2022-10-23T15:30:18.497Z,38.70
2022-10-23T15:32:25.607Z,39.55
2022-10-23T15:34:33.370Z,40.75
2022-10-23T15:36:41.665Z,36.22
2022-10-23T15:38:48.282Z,39.05
2022-10-23T15:41:02.350Z,44.42
2022-10-23T15:43:12.466Z,41.65
2022-10-23T15:45:20.006Z,38.27
2022-10-23T15:47:26.596Z,40.55
2022-10-23T15:49:33.672Z,39.03
2022-10-23T15:51:42.917Z,41.28
2022-10-23T15:53:49.750Z,43.40
2022-10-23T15:55:56.864Z,45.92
2022-10-23T15:58:05.812Z,41.80
2022-10-23T16:00:19.573Z,48.78
2022-10-23T16:02:27.098Z,42.33
2022-10-23T16:04:34.191Z,44.78
2022-10-23T16:06:42.577Z,43.08
2022-10-23T16:08:49.760Z,41.58
2022-10-23T16:10:56.304Z,43.55
2022-10-23T16:13:03.177Z,39.90
2022-10-23T16:15:10.577Z,42.85
2022-10-23T16:17:17.341Z,42.38
2022-10-23T16:19:24.024Z,42.20
2022-10-23T16:21:33.023Z,39.70
2022-10-23T16:23:41.278Z,42.05
2022-10-23T16:25:48.207Z,39.97
2022-10-23T16:27:54.714Z,34.83
2022-10-23T16:30:01.630Z,37.10
2022-10-23T16:32:08.572Z,37.15
2022-10-23T16:34:15.560Z,34.50
2022-10-23T16:36:23.179Z,34.25
2022-10-23T16:39:05.457Z,36.55
2022-10-23T16:41:30.847Z,32.15
2022-10-23T16:43:40.654Z,33.50
2022-10-23T16:46:09.065Z,31.40
2022-10-23T16:48:15.999Z,32.47
2022-10-23T16:50:22.480Z,26.77
2022-10-23T16:52:29.320Z,30.77
2022-10-23T16:54:37.738Z,29.08
2022-10-23T16:56:45.901Z,28.38
2022-10-23T16:58:52.500Z,28.63
2022-10-23T17:01:04.419Z,29.80
2022-10-23T17:03:11.872Z,28.73
2022-10-23T17:05:18.902Z,24.48
2022-10-23T17:07:25.974Z,28.50
2022-10-23T17:09:33.102Z,25.17
2022-10-23T17:11:43.007Z,25.95
2022-10-23T17:13:53.647Z,23.88
2022-10-23T17:16:12.244Z,24.63
2022-10-23T17:18:18.773Z,24.52
2022-10-23T17:20:25.398Z,26.10
2022-10-23T17:22:31.888Z,23.17
2022-10-23T17:24:38.481Z,24.27
2022-10-23T17:26:46.863Z,26.80
2022-10-23T17:28:53.514Z,21.55
2022-10-23T17:31:00.691Z,23.75
2022-10-23T17:33:07.248Z,23.58
2022-10-23T17:35:14.222Z,23.17
2022-10-23T17:37:20.787Z,21.70
2022-10-23T17:39:30.350Z,23.45
2022-10-23T17:41:37.077Z,26.27
2022-10-23T17:43:45.932Z,25.10
2022-10-23T17:45:52.431Z,21.92
2022-10-23T17:47:58.977Z,22.02
2022-10-23T17:50:07.506Z,21.52
2022-10-23T17:52:15.921Z,23.17
2022-10-23T17:54:22.972Z,25.20
2022-10-23T17:56:32.272Z,21.50
2022-10-23T17:58:39.181Z,22.55
2022-10-23T18:00:47.813Z,20.67
2022-10-23T18:02:54.370Z,20.25
2022-10-23T18:05:01.656Z,20.67
2022-10-23T18:07:08.261Z,22.10
2022-10-23T18:09:15.756Z,22.67
2022-10-23T18:11:23.993Z,22.90
2022-10-23T18:13:30.852Z,23.30
2022-10-23T18:15:38.252Z,23.98
2022-10-23T18:17:46.586Z,25.02
2022-10-23T18:19:56.437Z,21.05
2022-10-23T18:22:06.529Z,24.75
2022-10-23T18:24:13.160Z,21.80
2022-10-23T18:26:21.551Z,22.73
2022-10-23T18:28:28.914Z,22.30
2022-10-23T18:32:51.881Z,28.35
2022-10-23T18:34:58.342Z,22.08
2022-10-23T18:37:04.891Z,24.02
2022-10-23T18:39:14.176Z,21.80
2022-10-23T18:41:24.554Z,23.00
2022-10-23T18:43:43.198Z,24.40
2022-10-23T18:45:50.169Z,24.08
2022-10-23T18:47:58.678Z,23.23
2022-10-23T18:50:05.244Z,24.45
2022-10-23T18:52:11.812Z,24.95
2022-10-23T18:54:19.636Z,25.35
2022-10-23T18:56:27.897Z,22.88
2022-10-23T18:58:34.416Z,25.08
2022-10-23T19:00:42.742Z,29.27
2022-10-23T19:02:52.281Z,25.02
2022-10-23T19:05:01.050Z,29.08
2022-10-23T19:07:07.765Z,26.58
2022-10-23T19:09:16.265Z,26.63
2022-10-23T19:11:25.458Z,26.23
2022-10-23T19:13:36.500Z,26.40
2022-10-23T19:15:45.729Z,27.60
2022-10-23T19:17:54.871Z,24.70
2022-10-23T19:20:05.182Z,26.55
2022-10-23T19:22:12.970Z,27.20
2022-10-23T19:24:23.779Z,25.38
2022-10-23T19:26:32.421Z,26.92
2022-10-23T19:28:39.601Z,28.38
2022-10-23T19:30:46.274Z,29.55
2022-10-23T19:32:53.042Z,24.73
2022-10-23T19:34:59.563Z,27.25
2022-10-23T19:37:08.429Z,26.58
2022-10-23T19:39:15.077Z,26.58
2022-10-23T19:41:21.629Z,25.70
2022-10-23T19:43:28.180Z,28.48
2022-10-23T19:45:34.772Z,27.67
2022-10-23T19:47:41.876Z,27.65
2022-10-23T19:49:51.666Z,27.98
2022-10-23T19:51:58.160Z,30.67
2022-10-23T19:54:06.942Z,30.08
2022-10-23T19:56:14.552Z,31.30
2022-10-23T19:58:21.583Z,27.88
2022-10-23T20:00:29.039Z,27.88
2022-10-23T20:02:37.749Z,30.60
2022-10-23T20:04:44.219Z,29.65
2022-10-23T20:06:51.135Z,31.33
2022-10-23T20:08:57.988Z,30.27
2022-10-23T20:11:06.214Z,33.55
2022-10-23T20:13:19.841Z,32.75
2022-10-23T20:15:26.895Z,33.13
2022-10-23T20:17:33.467Z,31.65
2022-10-23T20:19:40.351Z,31.65
2022-10-23T20:21:48.566Z,32.13
2022-10-23T20:23:55.380Z,30.88
2022-10-23T20:26:09.582Z,31.23
2022-10-23T20:28:16.228Z,30.60
2022-10-23T20:30:22.904Z,31.10
2022-10-23T20:32:29.496Z,30.35
2022-10-23T20:34:36.511Z,31.33
2022-10-23T20:36:46.758Z,33.72
2022-10-23T20:38:53.985Z,35.95
2022-10-23T20:41:04.870Z,43.20
2022-10-23T20:43:13.005Z,42.45
2022-10-23T20:45:19.608Z,46.78
2022-10-23T20:47:26.810Z,50.65
2022-10-23T20:49:33.377Z,50.55
2022-10-23T20:51:40.015Z,45.08
2022-10-23T20:53:47.250Z,41.38
2022-10-23T20:55:53.836Z,40.78
2022-10-23T20:58:00.435Z,37.95
2022-10-23T21:00:09.724Z,37.58
2022-10-23T21:02:16.413Z,41.95
2022-10-23T21:04:25.320Z,34.47
2022-10-23T21:06:45.766Z,37.20
2022-10-23T21:09:01.504Z,36.58
2022-10-23T21:11:08.941Z,33.95
2022-10-23T21:13:15.691Z,34.67
2022-10-23T21:15:24.074Z,35.25
2022-10-23T21:19:38.390Z,33.85
2022-10-23T21:21:45.034Z,33.72
2022-10-23T21:23:52.884Z,41.90
2022-10-23T21:26:02.250Z,49.25
2022-10-23T21:30:17.581Z,55.80
2022-10-23T21:32:26.052Z,54.13
2022-10-23T21:34:33.062Z,55.55
2022-10-23T21:36:54.159Z,53.55
2022-10-23T21:39:07.243Z,53.60
2022-10-23T21:41:17.289Z,53.35
2022-10-23T21:43:23.813Z,51.55
2022-10-23T21:45:30.490Z,53.88
2022-10-23T21:47:39.103Z,51.72
2022-10-23T21:49:45.750Z,52.40
2022-10-23T21:51:52.367Z,47.67
2022-10-23T21:53:59.831Z,50.45
2022-10-23T21:56:08.525Z,43.20
2022-10-23T21:58:15.339Z,40.88
2022-10-23T22:00:22.527Z,43.58
2022-10-23T22:02:29.785Z,41.42
2022-10-23T22:04:38.776Z,41.50
2022-10-23T22:06:46.083Z,49.25
2022-10-23T22:08:53.590Z,49.72
2022-10-23T22:11:00.204Z,48.75
2022-10-23T22:13:06.748Z,49.35
2022-10-23T22:15:13.948Z,45.95
2022-10-23T22:17:20.535Z,46.92
2022-10-23T22:19:27.471Z,42.38
2022-10-23T22:21:36.037Z,39.42
2022-10-23T22:23:43.313Z,36.90
2022-10-23T22:25:49.775Z,41.92
2022-10-23T22:27:56.483Z,44.75
2022-10-23T22:30:04.711Z,40.70
2022-10-23T22:32:11.504Z,42.38
2022-10-23T22:34:27.279Z,39.70
2022-10-23T22:36:49.710Z,43.38
2022-10-23T22:38:57.262Z,41.75
2022-10-23T22:41:04.923Z,38.45
2022-10-23T22:43:11.394Z,39.85
2022-10-23T22:45:18.193Z,38.47
2022-10-23T22:47:24.855Z,37.78
2022-10-23T22:49:31.770Z,37.97
2022-10-23T22:51:38.295Z,37.90
2022-10-23T22:53:47.747Z,45.25
2022-10-23T22:55:54.285Z,39.97
2022-10-23T22:58:01.111Z,38.22
2022-10-23T23:00:09.281Z,72.90
2022-10-23T23:02:16.267Z,139.18
2022-10-23T23:04:39.014Z,117.20
2022-10-23T23:06:46.852Z,180.00
2022-10-23T23:08:55.512Z,139.10
2022-10-23T23:11:02.752Z,136.18
2022-10-23T23:13:09.315Z,107.43
2022-10-23T23:15:16.107Z,115.00
2022-10-23T23:17:22.754Z,98.82
2022-10-23T23:19:29.837Z,110.82
2022-10-23T23:21:36.746Z,117.90
2022-10-23T23:23:43.601Z,104.85
2022-10-23T23:25:52.908Z,110.82
2022-10-23T23:27:59.766Z,103.03
2022-10-23T23:30:07.343Z,115.43
2022-10-23T23:32:15.174Z,129.05
2022-10-23T23:34:21.760Z,104.32
2022-10-23T23:36:30.456Z,101.68
2022-10-23T23:38:37.026Z,113.75
2022-10-23T23:40:43.919Z,117.25
2022-10-23T23:42:52.036Z,103.03
2022-10-23T23:45:02.850Z,115.28
2022-10-23T23:47:20.197Z,127.30
2022-10-23T23:49:27.333Z,128.88
2022-10-23T23:51:34.132Z,138.32
2022-10-23T23:53:41.014Z,139.90
2022-10-23T23:55:47.535Z,154.65
2022-10-23T23:57:56.106Z,156.63
